sensor_id;sensor_type;location;lat;lon;timestamp;pressure;altitude;pressure_sealevel;temperature;humidity
41898;BME280;27576;53.366;-1.498;2023-05-07T00:00:58;99926.69;;;13.41;100.00
41898;BME280;27576;53.366;-1.498;2023-05-07T00:03:24;99924.97;;;13.37;100.00
41898;BME280;27576;53.366;-1.498;2023-05-07T00:05:51;99918.06;;;13.33;100.00
41898;BME280;27576;53.366;-1.498;2023-05-07T00:08:18;99936.25;;;13.41;100.00
41898;BME280;27576;53.366;-1.498;2023-05-07T00:10:44;99929.28;;;13.40;100.00
41898;BME280;27576;53.366;-1.498;2023-05-07T00:13:10;99901.63;;;13.23;100.00
41898;BME280;27576;53.366;-1.498;2023-05-07T00:15:35;99913.78;;;13.24;100.00
41898;BME280;27576;53.366;-1.498;2023-05-07T00:18:00;99924.16;;;13.31;100.00
41898;BME280;27576;53.366;-1.498;2023-05-07T00:20:26;99937.13;;;13.37;100.00
41898;BME280;27576;53.366;-1.498;2023-05-07T00:22:52;99911.16;;;13.20;100.00
41898;BME280;27576;53.366;-1.498;2023-05-07T00:25:17;99907.69;;;13.19;100.00
41898;BME280;27576;53.366;-1.498;2023-05-07T00:27:44;99925.91;;;13.27;100.00
41898;BME280;27576;53.366;-1.498;2023-05-07T00:30:10;99940.63;;;13.33;100.00
41898;BME280;27576;53.366;-1.498;2023-05-07T00:32:36;99922.47;;;13.25;100.00
41898;BME280;27576;53.366;-1.498;2023-05-07T00:35:02;99938.88;;;13.32;100.00
41898;BME280;27576;53.366;-1.498;2023-05-07T00:37:27;99938.00;;;13.31;100.00
41898;BME280;27576;53.366;-1.498;2023-05-07T00:39:52;99917.25;;;13.19;100.00
41898;BME280;27576;53.366;-1.498;2023-05-07T00:42:18;99939.75;;;13.31;100.00
41898;BME280;27576;53.366;-1.498;2023-05-07T00:44:43;99938.03;;;13.30;100.00
41898;BME280;27576;53.366;-1.498;2023-05-07T00:47:09;99922.47;;;13.17;100.00
41898;BME280;27576;53.366;-1.498;2023-05-07T00:49:39;99926.78;;;13.26;100.00
41898;BME280;27576;53.366;-1.498;2023-05-07T00:52:07;99942.34;;;13.32;100.00
41898;BME280;27576;53.366;-1.498;2023-05-07T00:54:34;99933.66;;;13.32;100.00
41898;BME280;27576;53.366;-1.498;2023-05-07T00:57:00;99925.06;;;13.23;100.00
41898;BME280;27576;53.366;-1.498;2023-05-07T00:59:27;99924.16;;;13.20;100.00
41898;BME280;27576;53.366;-1.498;2023-05-07T01:01:52;99903.44;;;13.08;100.00
41898;BME280;27576;53.366;-1.498;2023-05-07T01:04:18;99866.22;;;12.92;100.00
41898;BME280;27576;53.366;-1.498;2023-05-07T01:06:44;99926.81;;;13.24;100.00
41898;BME280;27576;53.366;-1.498;2023-05-07T01:09:10;99943.25;;;13.30;100.00
41898;BME280;27576;53.366;-1.498;2023-05-07T01:11:37;99922.47;;;13.17;100.00
41898;BME280;27576;53.366;-1.498;2023-05-07T01:14:02;99916.41;;;13.14;100.00
41898;BME280;27576;53.366;-1.498;2023-05-07T01:16:28;99909.47;;;13.14;100.00
41898;BME280;27576;53.366;-1.498;2023-05-07T01:18:53;99899.09;;;13.08;100.00
41898;BME280;27576;53.366;-1.498;2023-05-07T01:21:23;99898.25;;;13.06;100.00
41898;BME280;27576;53.366;-1.498;2023-05-07T01:23:50;99925.91;;;13.21;100.00
41898;BME280;27576;53.366;-1.498;2023-05-07T01:26:15;99933.69;;;13.22;100.00
41898;BME280;27576;53.366;-1.498;2023-05-07T01:28:41;99937.19;;;13.23;100.00
41898;BME280;27576;53.366;-1.498;2023-05-07T01:31:07;99922.50;;;13.13;100.00
41898;BME280;27576;53.366;-1.498;2023-05-07T01:33:34;99933.72;;;13.18;100.00
41898;BME280;27576;53.366;-1.498;2023-05-07T01:36:02;99939.78;;;13.18;100.00
41898;BME280;27576;53.366;-1.498;2023-05-07T01:38:31;99922.50;;;13.10;100.00
41898;BME280;27576;53.366;-1.498;2023-05-07T01:40:57;99918.16;;;13.07;100.00
41898;BME280;27576;53.366;-1.498;2023-05-07T01:43:23;99933.72;;;13.18;100.00
41898;BME280;27576;53.366;-1.498;2023-05-07T01:45:49;99905.22;;;13.01;100.00
41898;BME280;27576;53.366;-1.498;2023-05-07T01:48:15;99933.75;;;13.15;100.00
41898;BME280;27576;53.366;-1.498;2023-05-07T01:50:41;99941.53;;;13.16;100.00
41898;BME280;27576;53.366;-1.498;2023-05-07T01:53:08;99938.09;;;13.08;100.00
41898;BME280;27576;53.366;-1.498;2023-05-07T01:55:33;99913.91;;;12.97;100.00
41898;BME280;27576;53.366;-1.498;2023-05-07T01:57:58;99919.09;;;12.97;100.00
41898;BME280;27576;53.366;-1.498;2023-05-07T02:00:24;99932.09;;;12.98;100.00
41898;BME280;27576;53.366;-1.498;2023-05-07T02:02:49;99952.84;;;13.14;100.00
41898;BME280;27576;53.366;-1.498;2023-05-07T02:05:15;99922.56;;;12.99;100.00
41898;BME280;27576;53.366;-1.498;2023-05-07T02:07:40;99933.81;;;13.01;100.00
41898;BME280;27576;53.366;-1.498;2023-05-07T02:10:06;99944.19;;;13.09;100.00
41898;BME280;27576;53.366;-1.498;2023-05-07T02:12:31;99946.78;;;13.04;100.00
41898;BME280;27576;53.366;-1.498;2023-05-07T02:14:57;99959.78;;;13.10;100.00
41898;BME280;27576;53.366;-1.498;2023-05-07T02:17:22;99945.09;;;13.01;100.00
41898;BME280;27576;53.366;-1.498;2023-05-07T02:19:47;99964.97;;;13.12;100.00
41898;BME280;27576;53.366;-1.498;2023-05-07T02:22:13;99946.81;;;13.02;100.00
41898;BME280;27576;53.366;-1.498;2023-05-07T02:24:38;99969.31;;;13.11;100.00
41898;BME280;27576;53.366;-1.498;2023-05-07T02:27:03;99964.16;;;13.05;100.00
41898;BME280;27576;53.366;-1.498;2023-05-07T02:29:29;99972.78;;;13.10;100.00
41898;BME280;27576;53.366;-1.498;2023-05-07T02:31:55;99961.53;;;13.03;100.00
41898;BME280;27576;53.366;-1.498;2023-05-07T02:34:20;99946.88;;;12.93;100.00
41898;BME280;27576;53.366;-1.498;2023-05-07T02:36:46;99975.41;;;13.10;100.00
41898;BME280;27576;53.366;-1.498;2023-05-07T02:39:12;99986.66;;;13.11;100.00
41898;BME280;27576;53.366;-1.498;2023-05-07T02:41:37;99983.19;;;13.10;100.00
41898;BME280;27576;53.366;-1.498;2023-05-07T02:44:03;99960.72;;;12.94;100.00
41898;BME280;27576;53.366;-1.498;2023-05-07T02:46:28;99981.47;;;13.09;100.00
41898;BME280;27576;53.366;-1.498;2023-05-07T02:48:54;99993.59;;;13.12;100.00
41898;BME280;27576;53.366;-1.498;2023-05-07T02:51:21;99991.00;;;13.07;100.00
41898;BME280;27576;53.366;-1.498;2023-05-07T02:53:47;100002.25;;;13.12;100.00
41898;BME280;27576;53.366;-1.498;2023-05-07T02:56:12;99997.94;;;13.11;100.00
41898;BME280;27576;53.366;-1.498;2023-05-07T02:58:38;100002.28;;;13.11;100.00
41898;BME280;27576;53.366;-1.498;2023-05-07T03:01:07;100001.41;;;13.10;100.00
41898;BME280;27576;53.366;-1.498;2023-05-07T03:03:33;99981.50;;;13.00;100.00
41898;BME280;27576;53.366;-1.498;2023-05-07T03:05:58;100004.88;;;13.09;100.00
41898;BME280;27576;53.366;-1.498;2023-05-07T03:08:24;99997.94;;;13.10;100.00
41898;BME280;27576;53.366;-1.498;2023-05-07T03:10:49;100000.53;;;13.10;100.00
41898;BME280;27576;53.366;-1.498;2023-05-07T03:13:15;100000.53;;;13.10;100.00
41898;BME280;27576;53.366;-1.498;2023-05-07T03:15:40;100004.88;;;13.09;100.00
41898;BME280;27576;53.366;-1.498;2023-05-07T03:18:06;99969.44;;;12.85;100.00
41898;BME280;27576;53.366;-1.498;2023-05-07T03:20:31;100005.78;;;13.02;100.00
41898;BME280;27576;53.366;-1.498;2023-05-07T03:22:57;100010.97;;;13.07;100.00
41898;BME280;27576;53.366;-1.498;2023-05-07T03:25:22;100012.69;;;13.06;100.00
41898;BME280;27576;53.366;-1.498;2023-05-07T03:27:48;99996.28;;;12.93;100.00
41898;BME280;27576;53.366;-1.498;2023-05-07T03:30:13;99986.75;;;12.91;100.00
41898;BME280;27576;53.366;-1.498;2023-05-07T03:32:39;99905.44;;;12.41;100.00
41898;BME280;27576;53.366;-1.498;2023-05-07T03:35:04;99991.91;;;12.92;100.00
41898;BME280;27576;53.366;-1.498;2023-05-07T03:37:30;99998.84;;;12.98;100.00
41898;BME280;27576;53.366;-1.498;2023-05-07T03:39:55;99985.00;;;12.88;100.00
41898;BME280;27576;53.366;-1.498;2023-05-07T03:42:21;100006.63;;;12.99;100.00
41898;BME280;27576;53.366;-1.498;2023-05-07T03:44:46;100007.50;;;13.03;100.00
41898;BME280;27576;53.366;-1.498;2023-05-07T03:47:11;99995.41;;;12.90;100.00
41898;BME280;27576;53.366;-1.498;2023-05-07T03:49:38;100009.25;;;13.01;100.00
41898;BME280;27576;53.366;-1.498;2023-05-07T03:52:04;99997.13;;;12.91;100.00
41898;BME280;27576;53.366;-1.498;2023-05-07T03:54:30;100002.34;;;12.91;100.00
41898;BME280;27576;53.366;-1.498;2023-05-07T03:56:55;99995.41;;;12.84;100.00
41898;BME280;27576;53.366;-1.498;2023-05-07T03:59:21;99994.53;;;12.88;100.00
41898;BME280;27576;53.366;-1.498;2023-05-07T04:01:46;100016.19;;;12.96;100.00
41898;BME280;27576;53.366;-1.498;2023-05-07T04:04:12;100000.63;;;12.87;100.00
41898;BME280;27576;53.366;-1.498;2023-05-07T04:06:37;100017.94;;;12.94;100.00
41898;BME280;27576;53.366;-1.498;2023-05-07T04:09:03;99988.50;;;12.83;100.00
41898;BME280;27576;53.366;-1.498;2023-05-07T04:11:28;100016.19;;;12.94;100.00
41898;BME280;27576;53.366;-1.498;2023-05-07T04:13:54;100012.72;;;12.95;100.00
41898;BME280;27576;53.366;-1.498;2023-05-07T04:16:19;99990.25;;;12.77;100.00
41898;BME280;27576;53.366;-1.498;2023-05-07T04:18:44;100011.88;;;12.87;100.00
41898;BME280;27576;53.366;-1.498;2023-05-07T04:21:22;100010.97;;;12.93;100.00
41898;BME280;27576;53.366;-1.498;2023-05-07T04:23:48;100022.28;;;12.93;100.00
41898;BME280;27576;53.366;-1.498;2023-05-07T04:26:14;100019.69;;;12.93;100.00
41898;BME280;27576;53.366;-1.498;2023-05-07T04:28:40;100002.38;;;12.83;100.00
41898;BME280;27576;53.366;-1.498;2023-05-07T04:31:06;100024.00;;;12.91;100.00
41898;BME280;27576;53.366;-1.498;2023-05-07T04:33:32;100012.75;;;12.86;100.00
41898;BME280;27576;53.366;-1.498;2023-05-07T04:35:58;100007.56;;;12.83;100.00
41898;BME280;27576;53.366;-1.498;2023-05-07T04:38:28;100001.50;;;12.80;100.00
41898;BME280;27576;53.366;-1.498;2023-05-07T04:40:53;100008.44;;;12.81;100.00
41898;BME280;27576;53.366;-1.498;2023-05-07T04:43:19;100021.41;;;12.91;100.00
41898;BME280;27576;53.366;-1.498;2023-05-07T04:45:45;100026.63;;;12.90;100.00
41898;BME280;27576;53.366;-1.498;2023-05-07T04:48:11;100028.34;;;12.91;100.00
41898;BME280;27576;53.366;-1.498;2023-05-07T04:50:36;100007.59;;;12.78;100.00
41898;BME280;27576;53.366;-1.498;2023-05-07T04:53:02;99994.59;;;12.72;100.00
41898;BME280;27576;53.366;-1.498;2023-05-07T04:55:28;100027.50;;;12.90;100.00
41898;BME280;27576;53.366;-1.498;2023-05-07T04:57:53;100002.38;;;12.77;100.00
41898;BME280;27576;53.366;-1.498;2023-05-07T05:00:19;100016.22;;;12.87;100.00
41898;BME280;27576;53.366;-1.498;2023-05-07T05:02:45;100021.41;;;12.90;100.00
41898;BME280;27576;53.366;-1.498;2023-05-07T05:05:10;100028.34;;;12.94;100.00
41898;BME280;27576;53.366;-1.498;2023-05-07T05:07:36;100027.47;;;12.95;100.00
41898;BME280;27576;53.366;-1.498;2023-05-07T05:10:02;100024.88;;;12.92;100.00
41898;BME280;27576;53.366;-1.498;2023-05-07T05:12:29;100024.00;;;12.91;100.00
41898;BME280;27576;53.366;-1.498;2023-05-07T05:14:55;100000.63;;;12.81;100.00
41898;BME280;27576;53.366;-1.498;2023-05-07T05:17:20;100030.94;;;12.97;100.00
41898;BME280;27576;53.366;-1.498;2023-05-07T05:19:46;100018.78;;;12.93;100.00
41898;BME280;27576;53.366;-1.498;2023-05-07T05:22:11;100041.31;;;13.01;100.00
41898;BME280;27576;53.366;-1.498;2023-05-07T05:24:36;100010.16;;;12.88;100.00
41898;BME280;27576;53.366;-1.498;2023-05-07T05:27:02;100013.59;;;12.88;100.00
41898;BME280;27576;53.366;-1.498;2023-05-07T05:29:27;100046.50;;;13.06;100.00
41898;BME280;27576;53.366;-1.498;2023-05-07T05:31:53;100049.94;;;13.08;100.00
41898;BME280;27576;53.366;-1.498;2023-05-07T05:34:18;100021.41;;;12.91;100.00
41898;BME280;27576;53.366;-1.498;2023-05-07T05:36:47;100051.69;;;13.08;100.00
41898;BME280;27576;53.366;-1.498;2023-05-07T05:39:12;100032.66;;;12.96;100.00
41898;BME280;27576;53.366;-1.498;2023-05-07T05:41:37;100062.97;;;13.11;100.00
41898;BME280;27576;53.366;-1.498;2023-05-07T05:44:03;100069.88;;;13.12;100.00
41898;BME280;27576;53.366;-1.498;2023-05-07T05:46:29;100047.38;;;13.00;100.00
41898;BME280;27576;53.366;-1.498;2023-05-07T05:48:55;100050.00;;;13.05;100.00
41898;BME280;27576;53.366;-1.498;2023-05-07T05:51:21;100056.06;;;13.09;100.00
41898;BME280;27576;53.366;-1.498;2023-05-07T05:53:46;100062.97;;;13.10;100.00
41898;BME280;27576;53.366;-1.498;2023-05-07T05:56:12;100071.59;;;13.19;100.00
41898;BME280;27576;53.366;-1.498;2023-05-07T05:58:37;100056.91;;;13.11;100.00
41898;BME280;27576;53.366;-1.498;2023-05-07T06:01:03;100081.16;;;13.33;100.00
41898;BME280;27576;53.366;-1.498;2023-05-07T06:03:28;100074.19;;;13.36;100.00
41898;BME280;27576;53.366;-1.498;2023-05-07T06:05:54;100075.91;;;13.36;100.00
41898;BME280;27576;53.366;-1.498;2023-05-07T06:08:19;100082.84;;;13.38;100.00
41898;BME280;27576;53.366;-1.498;2023-05-07T06:10:45;100086.34;;;13.40;100.00
41898;BME280;27576;53.366;-1.498;2023-05-07T06:13:10;100079.38;;;13.39;100.00
41898;BME280;27576;53.366;-1.498;2023-05-07T06:15:35;100098.44;;;13.49;100.00
41898;BME280;27576;53.366;-1.498;2023-05-07T06:18:01;100091.47;;;13.53;100.00
41898;BME280;27576;53.366;-1.498;2023-05-07T06:20:26;100102.72;;;13.58;100.00
41898;BME280;27576;53.366;-1.498;2023-05-07T06:22:52;100089.72;;;13.58;100.00
41898;BME280;27576;53.366;-1.498;2023-05-07T06:25:17;100084.53;;;13.53;100.00
41898;BME280;27576;53.366;-1.498;2023-05-07T06:27:42;100090.56;;;13.63;100.00
41898;BME280;27576;53.366;-1.498;2023-05-07T06:30:08;100097.50;;;13.68;100.00
41898;BME280;27576;53.366;-1.498;2023-05-07T06:32:33;100091.41;;;13.69;100.00
41898;BME280;27576;53.366;-1.498;2023-05-07T06:34:59;100106.13;;;13.77;100.00
41898;BME280;27576;53.366;-1.498;2023-05-07T06:37:25;100107.00;;;13.75;100.00
41898;BME280;27576;53.366;-1.498;2023-05-07T06:39:50;100085.34;;;13.64;100.00
41898;BME280;27576;53.366;-1.498;2023-05-07T06:42:16;100096.56;;;13.74;100.00
41898;BME280;27576;53.366;-1.498;2023-05-07T06:44:41;100086.22;;;13.62;100.00
41898;BME280;27576;53.366;-1.498;2023-05-07T06:47:07;100066.28;;;13.51;100.00
41898;BME280;27576;53.366;-1.498;2023-05-07T06:49:32;100116.53;;;13.80;100.00
41898;BME280;27576;53.366;-1.498;2023-05-07T06:51:58;100097.47;;;13.70;100.00
41898;BME280;27576;53.366;-1.498;2023-05-07T06:54:23;100120.81;;;13.85;100.00
41898;BME280;27576;53.366;-1.498;2023-05-07T06:56:48;100117.34;;;13.89;100.00
41898;BME280;27576;53.366;-1.498;2023-05-07T06:59:14;100115.63;;;13.85;100.00
41898;BME280;27576;53.366;-1.498;2023-05-07T07:01:40;100126.84;;;13.98;100.00
41898;BME280;27576;53.366;-1.498;2023-05-07T07:04:05;100129.41;;;14.04;100.00
41898;BME280;27576;53.366;-1.498;2023-05-07T07:06:30;100137.19;;;14.12;100.00
41898;BME280;27576;53.366;-1.498;2023-05-07T07:08:57;100125.91;;;14.10;100.00
41898;BME280;27576;53.366;-1.498;2023-05-07T07:11:22;100142.34;;;14.21;100.00
41898;BME280;27576;53.366;-1.498;2023-05-07T07:13:48;100124.97;;;14.18;100.00
41898;BME280;27576;53.366;-1.498;2023-05-07T07:16:13;100140.53;;;14.32;100.00
41898;BME280;27576;53.366;-1.498;2023-05-07T07:18:39;100134.44;;;14.30;100.00
41898;BME280;27576;53.366;-1.498;2023-05-07T07:21:05;100129.22;;;14.30;100.00
41898;BME280;27576;53.366;-1.498;2023-05-07T07:23:30;100114.50;;;14.24;100.00
41898;BME280;27576;53.366;-1.498;2023-05-07T07:25:56;100124.03;;;14.29;100.00
41898;BME280;27576;53.366;-1.498;2023-05-07T07:28:21;100145.63;;;14.47;100.00
41898;BME280;27576;53.366;-1.498;2023-05-07T07:30:47;100120.50;;;14.39;100.00
41898;BME280;27576;53.366;-1.498;2023-05-07T07:33:12;100124.78;;;14.47;100.00
41898;BME280;27576;53.366;-1.498;2023-05-07T07:35:38;100141.19;;;14.63;100.00
41898;BME280;27576;53.366;-1.498;2023-05-07T07:38:03;100135.13;;;14.61;100.00
41898;BME280;27576;53.366;-1.498;2023-05-07T07:40:29;100103.03;;;14.48;100.00
41898;BME280;27576;53.366;-1.498;2023-05-07T07:42:54;100137.69;;;14.67;100.00
41898;BME280;27576;53.366;-1.498;2023-05-07T07:45:20;100129.91;;;14.61;100.00
41898;BME280;27576;53.366;-1.498;2023-05-07T07:47:45;100126.47;;;14.59;100.00
41898;BME280;27576;53.366;-1.498;2023-05-07T07:50:11;100129.06;;;14.59;100.00
41898;BME280;27576;53.366;-1.498;2023-05-07T07:52:36;100142.84;;;14.75;100.00
41898;BME280;27576;53.366;-1.498;2023-05-07T07:55:02;100141.06;;;14.80;100.00
41898;BME280;27576;53.366;-1.498;2023-05-07T07:57:28;100162.53;;;15.10;100.00
41898;BME280;27576;53.366;-1.498;2023-05-07T07:59:53;100157.19;;;15.22;100.00
41898;BME280;27576;53.366;-1.498;2023-05-07T08:02:19;100148.44;;;15.26;100.00
41898;BME280;27576;53.366;-1.498;2023-05-07T08:04:44;100147.44;;;15.38;100.00
41898;BME280;27576;53.366;-1.498;2023-05-07T08:07:10;100122.16;;;15.43;100.00
41898;BME280;27576;53.366;-1.498;2023-05-07T08:09:37;100135.84;;;15.68;100.00
41898;BME280;27576;53.366;-1.498;2023-05-07T08:12:03;100156.38;;;15.95;100.00
41898;BME280;27576;53.366;-1.498;2023-05-07T08:14:29;100146.78;;;15.94;100.00
41898;BME280;27576;53.366;-1.498;2023-05-07T08:16:55;100128.63;;;15.85;100.00
41898;BME280;27576;53.366;-1.498;2023-05-07T08:19:20;100150.13;;;16.07;100.00
41898;BME280;27576;53.366;-1.498;2023-05-07T08:21:47;100150.97;;;16.06;100.00
41898;BME280;27576;53.366;-1.498;2023-05-07T08:24:16;100156.19;;;16.09;100.00
41898;BME280;27576;53.366;-1.498;2023-05-07T08:26:41;100163.25;;;16.01;100.00
41898;BME280;27576;53.366;-1.498;2023-05-07T08:29:07;100149.53;;;15.85;100.00
41898;BME280;27576;53.366;-1.498;2023-05-07T08:31:33;100154.91;;;15.71;100.00
41898;BME280;27576;53.366;-1.498;2023-05-07T08:33:58;100178.38;;;15.78;100.00
41898;BME280;27576;53.366;-1.498;2023-05-07T08:36:24;100180.97;;;15.78;100.00
41898;BME280;27576;53.366;-1.498;2023-05-07T08:38:51;100153.31;;;15.58;100.00
41898;BME280;27576;53.366;-1.498;2023-05-07T08:41:16;100161.91;;;15.69;100.00
41898;BME280;27576;53.366;-1.498;2023-05-07T08:43:41;100168.75;;;15.80;100.00
41898;BME280;27576;53.366;-1.498;2023-05-07T08:46:09;100165.94;;;15.97;100.00
41898;BME280;27576;53.366;-1.498;2023-05-07T08:48:36;100166.38;;;16.28;100.00
41898;BME280;27576;53.366;-1.498;2023-05-07T08:51:02;100174.84;;;16.45;100.00
41898;BME280;27576;53.366;-1.498;2023-05-07T08:53:27;100158.19;;;16.51;100.00
41898;BME280;27576;53.366;-1.498;2023-05-07T08:55:53;100164.19;;;16.57;100.00
41898;BME280;27576;53.366;-1.498;2023-05-07T08:58:19;100168.44;;;16.64;100.00
41898;BME280;27576;53.366;-1.498;2023-05-07T09:00:44;100172.69;;;16.73;100.00
41898;BME280;27576;53.366;-1.498;2023-05-07T09:03:13;100176.88;;;16.83;100.00
41898;BME280;27576;53.366;-1.498;2023-05-07T09:05:39;100189.59;;;17.06;100.00
41898;BME280;27576;53.366;-1.498;2023-05-07T09:08:06;100174.00;;;16.99;100.00
41898;BME280;27576;53.366;-1.498;2023-05-07T09:10:33;100194.97;;;16.97;100.00
41898;BME280;27576;53.366;-1.498;2023-05-07T09:12:58;100162.25;;;16.68;100.00
41898;BME280;27576;53.366;-1.498;2023-05-07T09:15:24;100185.00;;;16.66;100.00
41898;BME280;27576;53.366;-1.498;2023-05-07T09:17:50;100194.59;;;16.64;100.00
41898;BME280;27576;53.366;-1.498;2023-05-07T09:20:16;100185.09;;;16.57;100.00
41898;BME280;27576;53.366;-1.498;2023-05-07T09:22:41;100177.91;;;16.75;100.00
41898;BME280;27576;53.366;-1.498;2023-05-07T09:25:08;100181.22;;;16.84;100.00
41898;BME280;27576;53.366;-1.498;2023-05-07T09:27:34;100204.63;;;16.95;100.00
41898;BME280;27576;53.366;-1.498;2023-05-07T09:30:03;100186.53;;;16.80;100.00
41898;BME280;27576;53.366;-1.498;2023-05-07T09:32:29;100179.63;;;16.73;100.00
41898;BME280;27576;53.366;-1.498;2023-05-07T09:34:56;100185.72;;;16.76;100.00
41898;BME280;27576;53.366;-1.498;2023-05-07T09:37:21;100185.56;;;16.85;100.00
41898;BME280;27576;53.366;-1.498;2023-05-07T09:39:48;100217.19;;;17.26;100.00
41898;BME280;27576;53.366;-1.498;2023-05-07T09:42:14;100215.59;;;17.63;100.00
41898;BME280;27576;53.366;-1.498;2023-05-07T09:44:46;100205.81;;;17.75;100.00
41898;BME280;27576;53.366;-1.498;2023-05-07T09:47:18;100215.94;;;17.91;100.00
41898;BME280;27576;53.366;-1.498;2023-05-07T09:49:47;100212.59;;;17.85;100.00
41898;BME280;27576;53.366;-1.498;2023-05-07T09:52:13;100215.88;;;17.96;100.00
41898;BME280;27576;53.366;-1.498;2023-05-07T09:54:40;100203.59;;;17.98;100.00
41898;BME280;27576;53.366;-1.498;2023-05-07T09:57:09;100236.28;;;18.24;100.00
41898;BME280;27576;53.366;-1.498;2023-05-07T09:59:37;100218.03;;;18.18;100.00
41898;BME280;27576;53.366;-1.498;2023-05-07T10:02:03;100215.31;;;18.24;100.00
41898;BME280;27576;53.366;-1.498;2023-05-07T10:04:31;100216.25;;;18.20;100.00
41898;BME280;27576;53.366;-1.498;2023-05-07T10:06:57;100237.03;;;18.29;100.00
41898;BME280;27576;53.366;-1.498;2023-05-07T10:09:25;100235.38;;;18.23;100.00
41898;BME280;27576;53.366;-1.498;2023-05-07T10:11:51;100219.13;;;18.07;100.00
41898;BME280;27576;53.366;-1.498;2023-05-07T10:14:19;100234.69;;;18.15;100.00
41898;BME280;27576;53.366;-1.498;2023-05-07T10:16:47;100223.91;;;18.29;100.00
41898;BME280;27576;53.366;-1.498;2023-05-07T10:19:14;100244.41;;;18.50;100.00
41898;BME280;27576;53.366;-1.498;2023-05-07T10:21:48;100250.09;;;18.72;100.00
41898;BME280;27576;53.366;-1.498;2023-05-07T10:24:27;100231.53;;;18.80;100.00
41898;BME280;27576;53.366;-1.498;2023-05-07T10:26:55;100240.16;;;19.21;100.00
41898;BME280;27576;53.366;-1.498;2023-05-07T10:29:28;100250.28;;;19.36;100.00
41898;BME280;27576;53.366;-1.498;2023-05-07T10:34:36;100228.47;;;18.98;100.00
41898;BME280;27576;53.366;-1.498;2023-05-07T10:37:03;100251.63;;;19.18;100.00
41898;BME280;27576;53.366;-1.498;2023-05-07T10:39:29;100235.56;;;18.95;99.40
41898;BME280;27576;53.366;-1.498;2023-05-07T10:41:55;100221.75;;;18.86;99.26
41898;BME280;27576;53.366;-1.498;2023-05-07T10:44:29;100247.44;;;19.09;95.57
41898;BME280;27576;53.366;-1.498;2023-05-07T10:47:08;100269.06;;;19.21;96.99
41898;BME280;27576;53.366;-1.498;2023-05-07T10:54:36;100239.09;;;19.60;95.66
41898;BME280;27576;53.366;-1.498;2023-05-07T10:57:43;100260.91;;;19.98;87.18
41898;BME280;27576;53.366;-1.498;2023-05-07T11:05:28;100271.34;;;20.31;85.68
41898;BME280;27576;53.366;-1.498;2023-05-07T11:08:01;100266.69;;;20.41;89.62
41898;BME280;27576;53.366;-1.498;2023-05-07T11:10:52;100268.78;;;20.59;82.12
41898;BME280;27576;53.366;-1.498;2023-05-07T11:13:45;100271.28;;;20.64;87.09
41898;BME280;27576;53.366;-1.498;2023-05-07T11:16:22;100274.88;;;20.89;91.20
41898;BME280;27576;53.366;-1.498;2023-05-07T11:18:54;100262.31;;;20.97;90.64
41898;BME280;27576;53.366;-1.498;2023-05-07T11:23:58;100281.06;;;21.43;83.29
41898;BME280;27576;53.366;-1.498;2023-05-07T11:26:24;100288.81;;;21.47;80.83
41898;BME280;27576;53.366;-1.498;2023-05-07T11:28:51;100292.47;;;21.43;81.14
41898;BME280;27576;53.366;-1.498;2023-05-07T11:31:21;100270.41;;;21.18;83.00
41898;BME280;27576;53.366;-1.498;2023-05-07T11:33:48;100289.38;;;21.02;78.03
41898;BME280;27576;53.366;-1.498;2023-05-07T11:36:14;100282.34;;;20.75;78.95
41898;BME280;27576;53.366;-1.498;2023-05-07T11:38:39;100282.63;;;20.66;84.16
41898;BME280;27576;53.366;-1.498;2023-05-07T11:41:05;100300.34;;;20.89;85.51
41898;BME280;27576;53.366;-1.498;2023-05-07T11:43:33;100299.66;;;20.82;80.30
41898;BME280;27576;53.366;-1.498;2023-05-07T11:46:11;100304.84;;;20.57;78.86
41898;BME280;27576;53.366;-1.498;2023-05-07T11:48:38;100292.59;;;20.25;78.31
41898;BME280;27576;53.366;-1.498;2023-05-07T11:51:05;100293.84;;;20.11;80.90
41898;BME280;27576;53.366;-1.498;2023-05-07T11:53:36;100276.31;;;20.10;84.88
41898;BME280;27576;53.366;-1.498;2023-05-07T11:56:10;100281.06;;;20.29;81.04
41898;BME280;27576;53.366;-1.498;2023-05-07T11:58:36;100282.28;;;20.47;78.90
41898;BME280;27576;53.366;-1.498;2023-05-07T12:01:01;100287.59;;;20.45;75.29
41898;BME280;27576;53.366;-1.498;2023-05-07T12:03:27;100292.00;;;20.45;76.24
41898;BME280;27576;53.366;-1.498;2023-05-07T12:05:53;100292.25;;;20.37;75.84
41898;BME280;27576;53.366;-1.498;2023-05-07T12:08:20;100292.75;;;20.50;78.53
41898;BME280;27576;53.366;-1.498;2023-05-07T12:10:48;100275.94;;;20.55;77.10
41898;BME280;27576;53.366;-1.498;2023-05-07T12:13:21;100263.00;;;20.46;75.79
41898;BME280;27576;53.366;-1.498;2023-05-07T12:15:50;100281.38;;;20.49;73.08
41898;BME280;27576;53.366;-1.498;2023-05-07T12:18:16;100283.28;;;20.43;72.55
41898;BME280;27576;53.366;-1.498;2023-05-07T12:20:42;100281.03;;;20.30;74.03
41898;BME280;27576;53.366;-1.498;2023-05-07T12:23:07;100270.78;;;20.20;71.58
41898;BME280;27576;53.366;-1.498;2023-05-07T12:25:37;100294.94;;;20.34;71.92
41898;BME280;27576;53.366;-1.498;2023-05-07T12:28:03;100309.59;;;20.43;76.17
41898;BME280;27576;53.366;-1.498;2023-05-07T12:30:40;100301.19;;;20.61;79.13
41898;BME280;27576;53.366;-1.498;2023-05-07T12:33:05;100299.72;;;20.80;76.20
41898;BME280;27576;53.366;-1.498;2023-05-07T12:35:36;100309.94;;;20.91;75.03
41898;BME280;27576;53.366;-1.498;2023-05-07T12:38:01;100306.00;;;21.04;73.61
41898;BME280;27576;53.366;-1.498;2023-05-07T12:40:43;100300.41;;;21.15;74.13
41898;BME280;27576;53.366;-1.498;2023-05-07T12:43:20;100278.34;;;20.91;69.00
41898;BME280;27576;53.366;-1.498;2023-05-07T12:45:50;100287.13;;;20.90;74.20
41898;BME280;27576;53.366;-1.498;2023-05-07T12:48:16;100260.19;;;21.08;77.11